Time;durP1;ratioP1;P1;durP2;ratioP2;P2;SDS_P1;SDS_P2;PMS_P1;PMS_P2;Temp;Humidity;BMP_temperature;BMP_pressure;BME280_temperature;BME280_humidity;BME280_pressure;Samples;Min_cycle;Max_cycle;Signal;HPM_P1;HPM_P2
2022/10/04 00:01:29;;;;;;;5.05;3.03;;;11.50;99.90;;;;;;6343526;22;20001;-86
2022/10/04 00:04:08;;;;;;;8.80;3.10;;;11.40;99.90;;;;;;6359609;22;20009;-83
2022/10/04 00:06:35;;;;;;;5.63;2.40;;;11.40;99.90;;;;;;6343314;22;20002;-83
2022/10/04 00:09:12;;;;;;;6.07;3.13;;;11.40;99.90;;;;;;6343442;22;19990;-84
2022/10/04 00:11:43;;;;;;;8.20;3.03;;;11.40;99.90;;;;;;6343028;22;20001;-85
2022/10/04 00:14:20;;;;;;;7.82;2.80;;;11.30;99.90;;;;;;6343367;22;20081;-87
2022/10/04 00:16:46;;;;;;;7.35;2.85;;;11.40;99.90;;;;;;6343112;22;20426;-85
2022/10/04 00:19:14;;;;;;;11.02;3.00;;;11.40;99.90;;;;;;6342908;22;19995;-84
2022/10/04 00:21:55;;;;;;;6.97;2.58;;;11.40;99.90;;;;;;6370740;22;19994;-85
2022/10/04 00:24:30;;;;;;;5.05;2.75;;;11.40;99.90;;;;;;6343502;22;20002;-84
2022/10/04 00:27:19;;;;;;;6.43;2.90;;;11.30;99.90;;;;;;6342934;22;20299;-85
2022/10/04 00:30:00;;;;;;;7.90;2.75;;;11.30;99.90;;;;;;6343155;22;20077;-85
2022/10/04 00:33:02;;;;;;;7.82;2.85;;;11.30;99.90;;;;;;6342972;22;20357;-83
2022/10/04 00:35:44;;;;;;;11.70;3.22;;;11.20;99.90;;;;;;6342743;22;20063;-84
2022/10/04 00:38:15;;;;;;;5.72;2.35;;;11.20;99.90;;;;;;6370609;22;19994;-85
2022/10/04 00:40:59;;;;;;;9.93;3.40;;;11.10;99.90;;;;;;6371123;22;20018;-85
2022/10/04 00:43:27;;;;;;;7.60;3.10;;;11.10;99.90;;;;;;6371465;22;20033;-83
2022/10/04 00:45:58;;;;;;;7.03;3.17;;;11.10;99.90;;;;;;6343354;22;20403;-85
2022/10/04 00:48:48;;;;;;;7.47;3.00;;;11.00;99.90;;;;;;6371323;22;20299;-84
2022/10/04 00:51:57;;;;;;;6.75;3.28;;;11.00;99.90;;;;;;6371012;22;20411;-85
2022/10/04 00:57:44;;;;;;;5.32;2.65;;;11.00;99.90;;;;;;6371271;22;20374;-84
2022/10/04 01:00:17;;;;;;;7.82;2.75;;;10.90;99.90;;;;;;6371035;22;20040;-85
2022/10/04 01:02:51;;;;;;;9.10;3.22;;;10.90;99.90;;;;;;6343882;22;20411;-85
2022/10/04 01:05:49;;;;;;;7.38;3.53;;;10.90;99.90;;;;;;6370897;22;20014;-86
2022/10/04 01:08:25;;;;;;;9.23;2.47;;;10.90;99.90;;;;;;6342877;22;20002;-85
2022/10/04 01:10:57;;;;;;;5.97;2.70;;;10.90;99.90;;;;;;6370975;22;19998;-86
2022/10/04 01:13:38;;;;;;;7.47;3.53;;;11.00;99.90;;;;;;6343373;22;20010;-83
2022/10/04 01:16:16;;;;;;;5.60;2.30;;;10.90;99.90;;;;;;6342925;22;20399;-85
2022/10/04 01:18:42;;;;;;;9.50;2.55;;;10.90;99.90;;;;;;6370573;22;20055;-88
2022/10/04 01:21:23;;;;;;;4.97;2.13;;;10.90;99.90;;;;;;6342949;22;19998;-85
2022/10/04 01:23:58;;;;;;;5.97;2.53;;;10.80;99.90;;;;;;6342592;22;20009;-88
2022/10/04 01:26:31;;;;;;;5.00;2.58;;;10.80;99.90;;;;;;6343154;22;19990;-87
2022/10/04 01:29:11;;;;;;;6.20;2.63;;;10.80;99.90;;;;;;6343057;22;19995;-84
2022/10/04 01:31:40;;;;;;;12.77;10.77;;;10.70;99.90;;;;;;6342585;22;19994;-83
2022/10/04 01:34:07;;;;;;;7.30;2.40;;;10.70;99.90;;;;;;6370317;22;20411;-83
2022/10/04 01:36:34;;;;;;;8.10;2.58;;;10.70;99.90;;;;;;6344754;22;20128;-82
2022/10/04 01:39:00;;;;;;;7.18;2.50;;;10.70;99.90;;;;;;6344674;22;19994;-83
2022/10/04 01:41:48;;;;;;;6.00;2.50;;;10.70;99.90;;;;;;6372345;22;20017;-84
2022/10/04 01:44:23;;;;;;;5.68;2.05;;;10.70;99.90;;;;;;6344263;22;20752;-85
2022/10/04 01:46:50;;;;;;;6.13;2.55;;;10.70;99.90;;;;;;6344794;22;19998;-86
2022/10/04 01:49:19;;;;;;;8.88;2.75;;;10.60;99.90;;;;;;6344486;22;19990;-83
2022/10/04 01:52:08;;;;;;;7.78;2.30;;;10.60;99.90;;;;;;6344716;22;19994;-85
2022/10/04 01:54:45;;;;;;;6.22;2.42;;;10.60;99.90;;;;;;6351320;22;20006;-84
2022/10/04 01:57:14;;;;;;;7.70;2.70;;;10.60;99.90;;;;;;6372400;22;19990;-83
2022/10/04 01:59:47;;;;;;;8.52;2.40;;;10.50;99.90;;;;;;6344323;22;20017;-86
2022/10/04 02:02:24;;;;;;;11.07;3.72;;;10.60;99.90;;;;;;6372397;22;20411;-85
2022/10/04 02:04:54;;;;;;;12.55;3.47;;;10.60;99.90;;;;;;6372726;22;19998;-89
2022/10/04 02:07:21;;;;;;;7.70;2.30;;;10.60;99.90;;;;;;6344688;22;19994;-86
2022/10/04 02:09:53;;;;;;;8.45;3.03;;;10.60;99.90;;;;;;6344866;22;19999;-84
2022/10/04 02:12:19;;;;;;;4.20;2.45;;;10.60;99.90;;;;;;6344789;22;20041;-88
2022/10/04 02:14:52;;;;;;;3.53;2.05;;;10.60;99.90;;;;;;6372615;22;19998;-84
2022/10/04 02:17:22;;;;;;;7.03;2.53;;;10.50;99.90;;;;;;6372491;22;19991;-83
2022/10/04 02:19:56;;;;;;;8.85;3.10;;;10.50;99.90;;;;;;6344624;22;20311;-85
2022/10/04 02:22:29;;;;;;;8.40;2.80;;;10.40;99.90;;;;;;6343772;22;19998;-84
2022/10/04 02:24:56;;;;;;;6.90;2.50;;;10.40;99.90;;;;;;6343700;22;20066;-84
2022/10/04 02:27:33;;;;;;;6.75;2.80;;;10.40;99.90;;;;;;6344236;22;20003;-84
2022/10/04 02:33:41;;;;;;;5.25;2.90;;;10.30;99.90;;;;;;6371677;22;20009;-83
2022/10/04 02:36:08;;;;;;;8.77;2.67;;;10.30;99.90;;;;;;6344004;22;20013;-85
2022/10/04 02:38:54;;;;;;;7.18;2.50;;;10.30;99.90;;;;;;6371925;22;20425;-84
2022/10/04 02:41:48;;;;;;;6.32;3.03;;;10.30;99.90;;;;;;6344180;22;19998;-85
2022/10/04 02:44:41;;;;;;;13.98;3.05;;;10.30;99.90;;;;;;6344041;22;20471;-85
2022/10/04 02:47:43;;;;;;;12.80;3.35;;;10.30;99.90;;;;;;6344217;22;20311;-85
2022/10/04 02:50:30;;;;;;;6.07;2.72;;;10.40;99.90;;;;;;6344339;22;19994;-83
2022/10/04 02:53:20;;;;;;;3.25;1.90;;;10.40;99.90;;;;;;6344292;22;20029;-84
2022/10/04 02:55:47;;;;;;;5.30;2.47;;;10.40;99.90;;;;;;6344365;22;19990;-85
2022/10/04 02:58:17;;;;;;;7.53;2.83;;;10.40;99.90;;;;;;6344617;22;19999;-83
2022/10/04 03:00:54;;;;;;;13.13;3.38;;;10.40;99.90;;;;;;6344355;22;20284;-86
2022/10/04 03:03:28;;;;;;;8.63;3.45;;;10.40;99.90;;;;;;6372424;22;19994;-83
2022/10/04 03:06:11;;;;;;;8.27;2.58;;;10.40;99.90;;;;;;6343006;22;20001;-85
2022/10/04 03:08:51;;;;;;;15.18;2.65;;;10.30;99.90;;;;;;6341453;22;20000;-85
2022/10/04 03:11:21;;;;;;;7.20;2.75;;;10.30;99.90;;;;;;6372159;22;20073;-85
2022/10/04 03:13:56;;;;;;;6.20;2.47;;;10.40;99.90;;;;;;6343123;22;20052;-84
2022/10/04 03:16:23;;;;;;;5.22;2.50;;;10.30;99.90;;;;;;6371905;22;20306;-87
2022/10/04 03:18:52;;;;;;;7.05;2.22;;;10.30;99.90;;;;;;6343232;22;20065;-87
2022/10/04 03:21:20;;;;;;;6.28;2.45;;;10.30;99.90;;;;;;6343786;22;20002;-85
2022/10/04 03:23:49;;;;;;;4.78;2.22;;;10.30;99.90;;;;;;6343425;22;20009;-83
2022/10/04 03:26:37;;;;;;;7.20;2.00;;;10.30;99.90;;;;;;6343987;22;19998;-85
2022/10/04 03:29:12;;;;;;;8.10;2.33;;;10.30;99.90;;;;;;6343541;22;20077;-85
2022/10/04 03:31:59;;;;;;;7.15;2.53;;;10.30;99.90;;;;;;6343678;22;19991;-87
2022/10/04 03:34:31;;;;;;;8.88;3.05;;;10.30;99.90;;;;;;6342913;22;20006;-83
2022/10/04 03:36:58;;;;;;;11.23;2.97;;;10.20;99.90;;;;;;6343525;22;20005;-84
2022/10/04 03:39:32;;;;;;;7.47;3.53;;;10.10;99.90;;;;;;6343333;22;20025;-84
2022/10/04 03:42:18;;;;;;;7.22;2.67;;;10.20;99.90;;;;;;6343245;22;20408;-83
2022/10/04 03:48:21;;;;;;;10.57;3.20;;;10.10;99.90;;;;;;6212693;23;20075;-86
2022/10/04 03:53:57;;;;;;;11.23;3.38;;;10.10;99.90;;;;;;6212655;23;20449;-83
2022/10/04 03:56:44;;;;;;;11.25;3.30;;;10.10;99.90;;;;;;6213232;23;20001;-83
2022/10/04 03:59:20;;;;;;;7.10;3.42;;;10.20;99.90;;;;;;6213634;23;20004;-85
2022/10/04 04:02:25;;;;;;;7.60;2.63;;;10.20;99.90;;;;;;6213540;23;20001;-83
2022/10/04 04:05:30;;;;;;;10.35;2.67;;;10.10;99.90;;;;;;6213531;23;20011;-84
2022/10/04 04:12:30;;;;;;;10.55;3.85;;;10.10;99.90;;;;;;6094361;23;20022;-83
2022/10/04 04:15:22;;;;;;;8.55;3.28;;;10.10;99.90;;;;;;6070721;23;20373;-83
2022/10/04 04:21:00;;;;;;;17.48;3.58;;;10.10;99.90;;;;;;6036893;23;20011;-82
2022/10/04 04:34:34;;;;;;;8.70;2.72;;;10.00;99.90;;;;;;6034075;23;20437;-83
2022/10/04 04:37:02;;;;;;;7.82;3.13;;;10.00;99.90;;;;;;6037531;23;20019;-82
2022/10/04 04:44:31;;;;;;;;;;;;;;;;;;;;;
2022/10/04 04:47:29;;;;;;;13.02;4.57;;;9.90;99.90;;;;;;6007415;23;20083;-83
2022/10/04 04:50:24;;;;;;;12.13;4.22;;;10.00;99.90;;;;;;6008359;23;20015;-83
2022/10/04 04:52:54;;;;;;;15.90;5.15;;;10.00;99.90;;;;;;6006839;23;20026;-84
2022/10/04 04:58:55;;;;;;;16.42;6.57;;;10.10;99.90;;;;;;6029385;23;20146;-84
2022/10/04 05:01:49;;;;;;;18.90;7.55;;;10.10;99.90;;;;;;6037586;23;19995;-83
2022/10/04 05:04:27;;;;;;;18.13;8.63;;;10.10;99.90;;;;;;6060869;23;20003;-82
2022/10/04 05:07:02;;;;;;;13.20;4.95;;;10.10;99.90;;;;;;6094525;23;20054;-83
2022/10/04 05:09:38;;;;;;;12.10;4.18;;;10.20;99.90;;;;;;6070601;23;20005;-83
2022/10/04 05:12:19;;;;;;;11.85;3.97;;;10.20;99.90;;;;;;6070653;23;19998;-83
2022/10/04 05:14:53;;;;;;;14.10;4.57;;;10.20;99.90;;;;;;6070923;23;20003;-83
2022/10/04 05:17:23;;;;;;;15.90;4.78;;;10.20;99.90;;;;;;6192893;23;20322;-82
2022/10/04 05:19:50;;;;;;;13.10;3.83;;;10.20;99.90;;;;;;6243575;23;20091;-84
2022/10/04 05:22:34;;;;;;;9.82;3.85;;;10.30;99.90;;;;;;6243703;23;20121;-82
2022/10/04 05:26:13;;;;;;;7.55;2.78;;;10.40;99.90;;;;;;6243850;23;19999;-82
2022/10/04 05:36:12;;;;;;;;;;;;;;;;;;;;;
2022/10/04 05:39:19;;;;;;;8.30;4.10;;;10.60;99.90;;;;;;6369410;22;20070;-82
2022/10/04 05:42:22;;;;;;;17.88;5.07;;;10.70;99.90;;;;;;6341931;22;19998;-84
2022/10/04 05:44:53;;;;;;;11.45;3.92;;;10.70;99.90;;;;;;6341082;22;20013;-84
2022/10/04 05:47:31;;;;;;;9.60;3.10;;;10.80;99.90;;;;;;6370701;22;19994;-82
2022/10/04 05:49:59;;;;;;;11.40;3.63;;;10.90;99.90;;;;;;6370592;22;20088;-82
2022/10/04 05:53:35;;;;;;;11.88;3.58;;;10.90;99.90;;;;;;6342718;22;20349;-83
2022/10/04 05:56:36;;;;;;;7.65;3.15;;;11.00;99.90;;;;;;6143380;23;19904;-83
2022/10/04 06:09:48;;;;;;;12.05;3.35;;;11.40;99.90;;;;;;6150750;23;20465;-84
2022/10/04 06:19:26;;;;;;;12.07;3.40;;;11.70;99.90;;;;;;6128913;23;20041;-80
2022/10/04 06:22:20;;;;;;;;;;;11.90;99.90;;;;;;6153394;23;20002;-83
2022/10/04 06:25:33;;;;;;;8.18;3.25;;;11.90;99.90;;;;;;6153843;23;20034;-83
2022/10/04 06:28:38;;;;;;;6.32;2.95;;;12.10;99.90;;;;;;6146186;23;19997;-82
2022/10/04 06:31:23;;;;;;;11.30;3.17;;;12.20;99.90;;;;;;6280689;22;20452;-83
2022/10/04 06:34:13;;;;;;;14.05;4.05;;;12.40;99.90;;;;;;6271144;22;20336;-82
2022/10/04 06:37:04;;;;;;;9.77;3.53;;;12.40;99.90;;;;;;6306436;22;20019;-82
2022/10/04 06:40:07;;;;;;;8.10;2.75;;;12.60;99.90;;;;;;6306996;22;20316;-83
2022/10/04 06:42:59;;;;;;;10.52;2.90;;;12.80;99.90;;;;;;6306966;22;19995;-83
2022/10/04 06:46:19;;;;;;;12.10;4.85;;;13.00;99.90;;;;;;6339248;22;20307;-82
2022/10/04 06:49:22;;;;;;;15.73;5.47;;;13.10;99.90;;;;;;6191887;23;20084;-81
2022/10/04 06:52:33;;;;;;;15.43;5.50;;;13.30;99.90;;;;;;6214685;23;20000;-82
2022/10/04 06:55:07;;;;;;;11.68;4.03;;;13.50;99.90;;;;;;6214804;23;20011;-83
2022/10/04 06:58:07;;;;;;;14.07;4.97;;;13.60;99.90;;;;;;6189254;23;20009;-82
2022/10/04 07:00:42;;;;;;;8.93;3.85;;;13.80;99.90;;;;;;6189418;23;20001;-82
2022/10/04 07:03:22;;;;;;;9.70;3.55;;;13.80;99.90;;;;;;6189818;23;20010;-82
2022/10/04 07:06:02;;;;;;;8.98;3.22;;;13.90;99.90;;;;;;6189311;23;20003;-82
2022/10/04 07:08:49;;;;;;;6.47;2.10;;;14.00;99.90;;;;;;6189412;23;20036;-81
2022/10/04 07:11:21;;;;;;;10.00;4.35;;;14.00;99.90;;;;;;6214399;23;19996;-82
2022/10/04 07:14:03;;;;;;;10.30;4.20;;;14.20;99.90;;;;;;6189291;23;20008;-79
2022/10/04 07:16:56;;;;;;;7.80;3.25;;;14.30;99.90;;;;;;6189483;23;20005;-82
2022/10/04 07:19:29;;;;;;;;;;;14.30;99.90;;;;;;6372632;22;20061;-82
2022/10/04 07:22:07;;;;;;;6.57;2.83;;;14.40;99.90;;;;;;6344023;22;19985;-79
2022/10/04 07:25:09;;;;;;;12.75;2.83;;;14.60;99.90;;;;;;6372573;22;20001;-78
2022/10/04 07:31:02;;;;;;;8.70;2.80;;;14.80;99.90;;;;;;6370504;22;19901;-85
2022/10/04 07:33:32;;;;;;;4.40;3.25;;;14.80;99.90;;;;;;6342752;22;20025;-81
2022/10/04 07:36:10;;;;;;;7.68;2.75;;;14.90;99.90;;;;;;6371741;22;20102;-81
2022/10/04 07:38:48;;;;;;;9.25;2.40;;;15.00;99.90;;;;;;6371663;22;20018;-84
2022/10/04 07:41:36;;;;;;;7.97;2.50;;;15.20;99.90;;;;;;6343786;22;20089;-82
2022/10/04 07:44:36;;;;;;;14.63;6.03;;;15.30;99.90;;;;;;6371832;22;20500;-81
2022/10/04 07:47:05;;;;;;;12.52;3.05;;;15.40;99.90;;;;;;6214024;23;20349;-82
2022/10/04 07:49:38;;;;;;;8.85;3.20;;;15.50;99.90;;;;;;6188827;23;20091;-81
2022/10/04 07:52:22;;;;;;;7.85;2.83;;;15.60;99.90;;;;;;6189132;23;20453;-81
2022/10/04 07:54:51;;;;;;;5.45;2.00;;;15.80;99.90;;;;;;6214024;23;20004;-82
2022/10/04 07:57:57;;;;;;;7.13;2.30;;;15.80;99.90;;;;;;6214097;23;20004;-81
2022/10/04 08:00:30;;;;;;;9.02;2.58;;;15.80;99.90;;;;;;6192146;23;20062;-81
2022/10/04 08:03:07;;;;;;;7.45;3.13;;;15.90;99.90;;;;;;6188913;23;20443;-80
2022/10/04 08:05:51;;;;;;;5.78;3.00;;;15.80;99.90;;;;;;6214179;23;20318;-83
2022/10/04 08:09:08;;;;;;;6.97;2.40;;;15.70;99.90;;;;;;6189034;23;20003;-85
2022/10/04 08:11:56;;;;;;;6.97;2.53;;;15.70;99.90;;;;;;6153976;23;20001;-81
2022/10/04 08:14:55;;;;;;;9.48;2.20;;;15.90;99.90;;;;;;6153933;23;20001;-84
2022/10/04 08:20:54;;;;;;;8.38;2.13;;;16.10;99.90;;;;;;6154109;23;20013;-80
2022/10/04 08:23:41;;;;;;;8.75;3.15;;;16.20;99.90;;;;;;6256874;22;19999;-78
2022/10/04 08:26:33;;;;;;;6.47;2.00;;;16.20;99.90;;;;;;6305840;22;20006;-78
2022/10/04 08:29:42;;;;;;;4.68;1.98;;;16.30;99.90;;;;;;6305651;22;20003;-80
2022/10/04 08:32:25;;;;;;;7.13;1.80;;;16.40;99.90;;;;;;6278669;22;20003;-81
2022/10/04 08:35:18;;;;;;;7.82;2.03;;;16.50;99.90;;;;;;6305413;22;21375;-79
2022/10/04 08:37:52;;;;;;;5.95;2.38;;;16.70;99.90;;;;;;6305801;22;20331;-79
2022/10/04 08:40:48;;;;;;;7.60;2.78;;;16.80;99.90;;;;;;6279744;22;20030;-78
2022/10/04 08:43:54;;;;;;;6.75;2.50;;;16.70;99.90;;;;;;6305578;22;20416;-78
2022/10/04 08:46:26;;;;;;;7.43;2.20;;;16.90;99.90;;;;;;6305595;22;20409;-76
2022/10/04 08:49:16;;;;;;;7.28;2.28;;;17.00;99.90;;;;;;6361588;22;19999;-78
2022/10/04 08:52:00;;;;;;;7.00;2.35;;;17.10;99.90;;;;;;6343453;22;20000;-77
2022/10/04 08:55:04;;;;;;;10.85;3.00;;;17.20;99.90;;;;;;6371082;22;19998;-78
2022/10/04 08:57:48;;;;;;;6.53;2.83;;;17.00;99.90;;;;;;6370986;22;20001;-77
2022/10/04 09:00:25;;;;;;;6.88;2.38;;;17.00;99.90;;;;;;6342880;22;20116;-78
2022/10/04 09:03:19;;;;;;;7.28;1.92;;;17.20;99.90;;;;;;6342670;22;20299;-78
2022/10/04 09:06:08;;;;;;;9.05;2.33;;;17.20;99.90;;;;;;6371148;22;20001;-76
2022/10/04 09:09:09;;;;;;;4.85;1.63;;;17.00;99.90;;;;;;6271573;22;20135;-76
2022/10/04 09:11:54;;;;;;;6.75;2.08;;;16.70;99.90;;;;;;6307548;22;20006;-78
2022/10/04 09:15:01;;;;;;;12.77;1.58;;;16.60;99.90;;;;;;6370961;22;19995;-78
2022/10/04 09:17:52;;;;;;;3.15;1.60;;;16.50;99.90;;;;;;6370573;22;20065;-77
2022/10/04 09:20:57;;;;;;;6.90;2.03;;;17.20;99.90;;;;;;6371106;22;19994;-76
2022/10/04 09:23:38;;;;;;;8.98;1.98;;;17.70;99.90;;;;;;6341828;22;20076;-79
2022/10/04 09:26:19;;;;;;;3.67;1.50;;;17.60;99.90;;;;;;6371299;22;20044;-76
2022/10/04 09:29:03;;;;;;;6.80;1.73;;;18.10;99.90;;;;;;6371038;22;19993;-81
2022/10/04 09:31:38;;;;;;;4.22;1.67;;;18.50;96.00;;;;;;6370740;22;20426;-77
2022/10/04 09:34:13;;;;;;;6.47;2.08;;;18.70;93.80;;;;;;6370944;22;20009;-78
2022/10/04 09:36:51;;;;;;;3.30;1.40;;;18.20;92.00;;;;;;6342850;22;20423;-78
2022/10/04 09:40:03;;;;;;;7.22;1.90;;;17.80;94.30;;;;;;6342756;22;19991;-77
2022/10/04 09:42:32;;;;;;;5.53;1.80;;;17.70;97.20;;;;;;6371036;22;19990;-76
2022/10/04 09:45:20;;;;;;;5.07;2.08;;;17.60;96.90;;;;;;6370342;22;19998;-77
2022/10/04 09:48:16;;;;;;;5.65;1.92;;;17.70;98.60;;;;;;6371053;22;20298;-78
2022/10/04 09:50:58;;;;;;;6.57;2.08;;;18.20;99.80;;;;;;6342899;22;19994;-77
2022/10/04 09:53:36;;;;;;;;;;;18.20;96.40;;;;;;6371291;22;19999;-77
2022/10/04 09:56:30;;;;;;;16.23;7.28;;;18.60;95.20;;;;;;6371406;22;20225;-78
2022/10/04 09:59:17;;;;;;;7.10;2.45;;;18.70;91.70;;;;;;6372773;22;20022;-77
2022/10/04 10:02:07;;;;;;;6.40;2.30;;;18.40;93.40;;;;;;6345157;22;20059;-77
2022/10/04 10:05:18;;;;;;;5.55;2.33;;;18.30;90.40;;;;;;6344703;22;20002;-78
2022/10/04 10:08:17;;;;;;;7.45;3.90;;;18.20;91.10;;;;;;6364789;22;20002;-79
2022/10/04 10:14:17;;;;;;;10.77;5.40;;;18.20;90.80;;;;;;6372263;22;20018;-78
2022/10/04 10:17:38;;;;;;;12.40;5.55;;;17.90;91.70;;;;;;6344588;22;19990;-77
2022/10/04 10:20:28;;;;;;;7.67;2.40;;;17.70;92.00;;;;;;6331438;22;19995;-76
2022/10/04 10:23:09;;;;;;;5.00;2.13;;;18.10;95.10;;;;;;6344720;22;19994;-76
2022/10/04 10:25:47;;;;;;;8.52;3.60;;;18.80;91.90;;;;;;6372356;22;19990;-77
2022/10/04 10:28:27;;;;;;;8.82;4.63;;;19.30;92.00;;;;;;6344429;22;20069;-77
2022/10/04 10:31:31;;;;;;;6.82;2.83;;;19.90;87.00;;;;;;6372590;22;19991;-77
2022/10/04 10:34:18;;;;;;;5.03;1.60;;;19.80;81.20;;;;;;6372339;22;20006;-77
2022/10/04 10:36:47;;;;;;;6.35;1.70;;;19.50;77.90;;;;;;6372702;22;20014;-77
2022/10/04 10:39:34;;;;;;;5.20;1.63;;;19.00;77.60;;;;;;6372159;22;19994;-78
2022/10/04 10:42:10;;;;;;;6.85;2.15;;;19.30;81.50;;;;;;6371924;22;20002;-78
2022/10/04 10:45:13;;;;;;;5.25;2.33;;;19.60;78.60;;;;;;6344195;22;20139;-77
2022/10/04 10:47:58;;;;;;;4.65;1.80;;;20.30;77.00;;;;;;6344538;22;20016;-77
2022/10/04 10:50:57;;;;;;;2.92;1.48;;;20.50;75.50;;;;;;6344670;22;20311;-77
2022/10/04 10:53:47;;;;;;;3.80;1.50;;;20.00;71.80;;;;;;6371568;22;20002;-77
2022/10/04 10:56:36;;;;;;;4.20;1.88;;;19.20;68.80;;;;;;6372238;22;20017;-77
2022/10/04 10:59:26;;;;;;;4.00;1.35;;;18.70;71.20;;;;;;6372320;22;19997;-75
2022/10/04 11:02:04;;;;;;;8.35;2.75;;;18.30;73.90;;;;;;6372171;22;19987;-76
2022/10/04 11:04:57;;;;;;;4.63;1.33;;;18.80;77.80;;;;;;6372074;22;20433;-76
2022/10/04 11:07:30;;;;;;;9.95;2.15;;;18.60;79.80;;;;;;6372076;22;20407;-77
2022/10/04 11:10:05;;;;;;;7.10;1.88;;;18.30;80.50;;;;;;6371726;22;20033;-78
2022/10/04 11:12:38;;;;;;;9.38;1.80;;;18.00;78.40;;;;;;6372139;22;19993;-77
2022/10/04 11:15:25;;;;;;;6.40;2.58;;;17.80;83.00;;;;;;6372168;22;20078;-78
2022/10/04 11:18:21;;;;;;;11.85;6.32;;;18.60;81.80;;;;;;6371693;22;20000;-76
2022/10/04 11:21:25;;;;;;;8.80;4.20;;;19.50;75.10;;;;;;6343852;22;19994;-78
2022/10/04 11:24:06;;;;;;;5.75;2.70;;;19.50;74.30;;;;;;6371925;22;19994;-79
2022/10/04 11:26:47;;;;;;;6.72;2.20;;;19.20;74.00;;;;;;6371668;22;19994;-80
2022/10/04 11:29:31;;;;;;;4.03;2.35;;;18.80;73.70;;;;;;6371887;22;20001;-77
2022/10/04 11:31:59;;;;;;;7.60;2.80;;;18.60;76.40;;;;;;6371559;22;19990;-80
2022/10/04 11:34:59;;;;;;;5.95;2.72;;;19.30;75.70;;;;;;6371457;22;20085;-78
2022/10/04 11:37:52;;;;;;;5.78;1.80;;;19.90;73.20;;;;;;6371339;22;20051;-78
2022/10/04 11:40:56;;;;;;;7.97;2.97;;;20.50;69.30;;;;;;6371540;22;19991;-78
2022/10/04 11:43:58;;;;;;;5.45;3.03;;;20.90;68.80;;;;;;6344027;22;20005;-76
2022/10/04 11:46:35;;;;;;;4.82;2.72;;;21.20;65.70;;;;;;6344071;22;20023;-77
2022/10/04 11:49:10;;;;;;;8.90;2.88;;;21.30;63.90;;;;;;6371854;22;19990;-78
2022/10/04 11:51:55;;;;;;;8.85;3.70;;;20.80;62.60;;;;;;6371590;22;19990;-80
2022/10/04 11:55:00;;;;;;;4.65;2.40;;;20.20;62.00;;;;;;6371885;22;20001;-79
2022/10/04 11:57:50;;;;;;;6.10;3.35;;;20.20;66.40;;;;;;6371974;22;19994;-79
2022/10/04 12:00:20;;;;;;;5.18;1.75;;;19.90;63.20;;;;;;6371559;22;20081;-79
2022/10/04 12:03:23;;;;;;;6.82;2.25;;;19.60;64.80;;;;;;6371627;22;20019;-79
2022/10/04 12:06:38;;;;;;;9.13;2.38;;;19.70;67.70;;;;;;6371537;22;20024;-80
2022/10/04 12:09:22;;;;;;;4.55;2.78;;;19.70;67.70;;;;;;6265501;22;20005;-79
2022/10/04 12:15:07;;;;;;;6.20;1.80;;;19.20;67.70;;;;;;6370810;22;20055;-80
2022/10/04 12:18:02;;;;;;;7.75;2.70;;;19.00;72.00;;;;;;6343154;22;19998;-79
2022/10/04 12:20:40;;;;;;;6.90;2.40;;;18.70;71.90;;;;;;6370724;22;19991;-79
2022/10/04 12:23:26;;;;;;;5.43;2.20;;;18.60;71.60;;;;;;6343347;22;19998;-80
2022/10/04 12:26:00;;;;;;;9.18;3.10;;;18.40;72.80;;;;;;6370814;22;20483;-79
2022/10/04 12:28:39;;;;;;;9.07;3.30;;;18.30;76.00;;;;;;6371096;22;19994;-79
2022/10/04 12:31:31;;;;;;;9.15;2.65;;;18.10;77.00;;;;;;6342676;22;20010;-80
2022/10/04 12:34:06;;;;;;;;;;;17.90;81.50;;;;;;6370711;22;19998;-80
2022/10/04 12:36:52;;;;;;;6.50;1.90;;;17.80;81.30;;;;;;6337560;22;19906;-80
2022/10/04 12:39:41;;;;;;;12.68;3.22;;;17.80;83.80;;;;;;6339859;22;19998;-77
2022/10/04 12:42:17;;;;;;;7.93;2.42;;;18.00;83.60;;;;;;6339161;22;19995;-79
2022/10/04 12:44:54;;;;;;;5.13;2.20;;;18.20;79.30;;;;;;6340021;22;19998;-78
2022/10/04 12:47:40;;;;;;;4.82;2.33;;;18.20;78.00;;;;;;6339139;22;19990;-79
2022/10/04 12:50:43;;;;;;;8.48;4.38;;;18.20;79.40;;;;;;6339625;22;19998;-79
2022/10/04 12:53:33;;;;;;;5.35;3.00;;;18.20;78.40;;;;;;6339809;22;20423;-79
2022/10/04 12:56:34;;;;;;;17.95;5.10;;;18.20;81.50;;;;;;6339712;22;20018;-77
2022/10/04 12:59:24;;;;;;;16.95;7.32;;;18.10;78.30;;;;;;6313976;22;19995;-77
2022/10/04 13:02:19;;;;;;;18.80;11.23;;;18.20;82.80;;;;;;6339245;22;19991;-78
2022/10/04 13:05:06;;;;;;;11.90;5.95;;;18.20;81.60;;;;;;6335635;22;20026;-79
2022/10/04 13:08:06;;;;;;;17.17;8.85;;;18.20;75.50;;;;;;6339821;22;19986;-78
2022/10/04 13:10:47;;;;;;;10.23;3.95;;;18.20;75.70;;;;;;6337744;22;19994;-79
2022/10/04 13:13:27;;;;;;;15.50;6.72;;;18.20;78.10;;;;;;6339400;22;20003;-81
2022/10/04 13:16:05;;;;;;;14.15;7.03;;;18.20;80.20;;;;;;6339241;22;19995;-79
2022/10/04 13:18:54;;;;;;;17.83;6.20;;;18.10;78.00;;;;;;6337849;22;19995;-80
2022/10/04 13:21:36;;;;;;;13.95;6.35;;;18.00;77.60;;;;;;6339236;22;20019;-78
2022/10/04 13:24:19;;;;;;;10.93;4.40;;;17.80;78.90;;;;;;6339513;22;19999;-79
2022/10/04 13:26:57;;;;;;;11.27;3.70;;;17.80;79.40;;;;;;6339055;22;20074;-80
2022/10/04 13:29:35;;;;;;;7.63;3.30;;;17.70;77.70;;;;;;6339444;22;19987;-81
2022/10/04 13:32:09;;;;;;;10.82;5.68;;;17.70;80.70;;;;;;6341702;22;19991;-80
2022/10/04 13:34:44;;;;;;;8.20;3.13;;;17.80;85.20;;;;;;6341939;22;19995;-78
2022/10/04 13:37:31;;;;;;;5.95;2.83;;;18.00;83.20;;;;;;6372661;22;20082;-78
2022/10/04 13:40:25;;;;;;;8.02;3.20;;;18.00;81.50;;;;;;6373130;22;20021;-78
2022/10/04 13:43:37;;;;;;;7.88;3.45;;;18.00;83.40;;;;;;6372832;22;19997;-79
2022/10/04 13:46:22;;;;;;;9.68;3.47;;;18.00;81.90;;;;;;6373191;22;20022;-78
2022/10/04 13:49:09;;;;;;;7.63;2.78;;;18.20;82.40;;;;;;6373063;22;20059;-78
2022/10/04 13:51:47;;;;;;;6.72;2.90;;;18.50;78.80;;;;;;6372882;22;20062;-79
2022/10/04 13:57:47;;;;;;;7.18;3.35;;;18.20;82.90;;;;;;6333009;22;20005;-80
2022/10/04 14:00:27;;;;;;;6.93;2.65;;;18.10;80.80;;;;;;6372712;22;20002;-80
2022/10/04 14:03:32;;;;;;;11.32;4.70;;;18.00;83.30;;;;;;6344914;22;19995;-78
2022/10/04 14:06:12;;;;;;;13.90;5.35;;;17.90;88.90;;;;;;6214936;23;20008;-78
2022/10/04 14:08:59;;;;;;;15.68;7.82;;;17.80;87.50;;;;;;6215220;23;20000;-81
2022/10/04 14:11:31;;;;;;;10.40;4.53;;;17.80;87.70;;;;;;6215116;23;20142;-78
2022/10/04 14:14:42;;;;;;;10.05;3.40;;;17.70;86.20;;;;;;6215270;23;20453;-79
2022/10/04 14:17:44;;;;;;;12.38;5.78;;;17.60;83.40;;;;;;6189573;23;20388;-79
2022/10/04 14:20:28;;;;;;;;;;;17.60;85.20;;;;;;6215511;23;20059;-81
2022/10/04 14:23:03;;;;;;;9.32;4.10;;;17.50;89.70;;;;;;6214886;23;19906;-78
2022/10/04 14:26:13;;;;;;;14.05;4.72;;;17.40;86.90;;;;;;6189638;23;19996;-80
2022/10/04 14:28:51;;;;;;;19.42;5.10;;;17.40;87.70;;;;;;6197319;23;20003;-80
2022/10/04 14:31:45;;;;;;;16.90;6.68;;;17.40;90.80;;;;;;6190187;23;20310;-79
2022/10/04 14:34:11;;;;;;;38.60;11.93;;;17.40;91.70;;;;;;6189431;23;20003;-79
2022/10/04 14:36:55;;;;;;;26.15;9.15;;;17.30;92.10;;;;;;6214678;23;20020;-80
2022/10/04 14:39:24;;;;;;;28.63;12.40;;;17.30;92.20;;;;;;6214785;23;20468;-80
2022/10/04 14:42:30;;;;;;;40.10;18.50;;;17.20;93.20;;;;;;6269502;22;19997;-80
2022/10/04 14:45:03;;;;;;;40.05;19.27;;;17.10;94.30;;;;;;6344515;22;19998;-79
2022/10/04 14:48:06;;;;;;;31.23;15.90;;;17.10;98.20;;;;;;6344258;22;19991;-79
2022/10/04 14:50:34;;;;;;;29.98;12.57;;;16.90;99.90;;;;;;6344285;22;19997;-78
2022/10/04 14:53:22;;;;;;;39.92;16.73;;;16.90;99.90;;;;;;6343979;22;20036;-78
2022/10/04 14:56:08;;;;;;;39.17;15.45;;;16.80;99.90;;;;;;6344490;22;20022;-79
2022/10/04 14:58:49;;;;;;;12.93;6.25;;;16.70;99.90;;;;;;6343829;22;19998;-79
2022/10/04 15:02:07;;;;;;;14.98;4.15;;;16.50;99.90;;;;;;6370548;22;20415;-80
2022/10/04 15:08:20;;;;;;;12.77;5.82;;;16.20;99.90;;;;;;6371145;22;20004;-79
2022/10/04 15:11:03;;;;;;;10.85;5.13;;;16.00;99.90;;;;;;6371545;22;20028;-79
2022/10/04 15:13:49;;;;;;;6.53;4.10;;;15.80;99.90;;;;;;6371877;22;20025;-80
2022/10/04 15:16:36;;;;;;;9.50;4.03;;;15.60;99.90;;;;;;6372333;22;20410;-80
2022/10/04 15:19:23;;;;;;;14.32;6.93;;;15.40;99.90;;;;;;6372139;22;20418;-79
2022/10/04 15:22:05;;;;;;;21.15;9.43;;;15.30;99.90;;;;;;6343527;22;20002;-79
2022/10/04 15:24:52;;;;;;;21.92;11.90;;;15.20;99.90;;;;;;6344156;22;19994;-79
2022/10/04 15:28:02;;;;;;;25.02;13.15;;;15.10;99.90;;;;;;6344149;22;19990;-79
2022/10/04 15:31:15;;;;;;;26.70;11.55;;;15.10;99.90;;;;;;6343826;22;20398;-80
2022/10/04 15:34:18;;;;;;;13.32;6.40;;;15.10;99.90;;;;;;6343170;22;20044;-79
2022/10/04 15:40:42;;;;;;;;;;;;;;;;;;;;;
2022/10/04 15:43:32;;;;;;;27.20;10.95;;;15.10;99.90;;;;;;6370968;22;20067;-78
2022/10/04 15:49:51;;;;;;;13.05;6.57;;;15.10;99.90;;;;;;6371177;22;20063;-79